createdAt,value
2022-08-03T00:01:51.658Z,95582.16
2022-08-03T00:04:18.308Z,95581.59
2022-08-03T00:06:44.792Z,95579.44
2022-08-03T00:09:11.940Z,95585.13
2022-08-03T00:11:38.867Z,95578.84
2022-08-03T00:14:06.255Z,95590.34
2022-08-03T00:16:34.460Z,95584.19
2022-08-03T00:19:02.481Z,95583.69
2022-08-03T00:21:29.503Z,95592.66
2022-08-03T00:23:56.178Z,95587.00
2022-08-03T00:26:22.995Z,95588.06
2022-08-03T00:28:49.986Z,95579.44
2022-08-03T00:31:16.768Z,95578.63
2022-08-03T00:33:58.008Z,95580.25
2022-08-03T00:36:26.891Z,95581.59
2022-08-03T00:38:53.500Z,95581.03
2022-08-03T00:41:20.063Z,95583.09
2022-08-03T00:43:46.714Z,95583.63
2022-08-03T00:46:16.436Z,95576.34
2022-08-03T00:48:47.243Z,95573.44
2022-08-03T00:51:14.072Z,95575.94
2022-08-03T00:53:41.177Z,95577.03
2022-08-03T00:56:07.791Z,95576.22
2022-08-03T00:58:34.437Z,95575.69
2022-08-03T01:01:01.020Z,95581.06
2022-08-03T01:03:27.743Z,95584.31
2022-08-03T01:06:16.122Z,95575.69
2022-08-03T01:09:02.478Z,95576.75
2022-08-03T01:12:00.991Z,95581.34
2022-08-03T01:14:44.453Z,95577.03
2022-08-03T01:17:33.910Z,95579.97
2022-08-03T01:20:10.148Z,95577.84
2022-08-03T01:23:19.758Z,95574.03
2022-08-03T01:26:00.219Z,95574.06
2022-08-03T01:28:47.846Z,95573.78
2022-08-03T01:31:21.464Z,95572.44
2022-08-03T01:33:57.145Z,95572.34
2022-08-03T01:36:32.098Z,95575.16
2022-08-03T01:39:04.988Z,95575.13
2022-08-03T01:41:42.338Z,95574.72
2022-08-03T01:44:29.239Z,95570.31
2022-08-03T01:47:03.270Z,95570.75
2022-08-03T01:49:40.473Z,95566.19
2022-08-03T01:52:08.857Z,95563.72
2022-08-03T01:54:41.461Z,95565.84
2022-08-03T01:57:10.372Z,95565.66
2022-08-03T01:59:39.308Z,95566.09
2022-08-03T02:02:29.767Z,95564.03
2022-08-03T02:04:59.981Z,95570.91
2022-08-03T02:07:29.163Z,95567.66
2022-08-03T02:09:58.360Z,95572.50
2022-08-03T02:12:28.619Z,95570.13
2022-08-03T02:14:56.572Z,95572.94
2022-08-03T02:17:39.088Z,95565.84
2022-08-03T02:20:10.875Z,95575.41
2022-08-03T02:22:41.349Z,95577.63
2022-08-03T02:25:13.593Z,95573.06
2022-08-03T02:27:44.517Z,95570.66
2022-08-03T02:30:13.207Z,95571.50
2022-08-03T02:32:44.064Z,95576.88
2022-08-03T02:35:16.002Z,95565.31
2022-08-03T02:37:49.599Z,95575.53
2022-08-03T02:40:20.020Z,95573.38
2022-08-03T02:42:51.218Z,95569.56
2022-08-03T02:45:20.854Z,95570.66
2022-08-03T02:47:54.267Z,95564.72
2022-08-03T02:50:24.210Z,95573.38
2022-08-03T02:52:52.692Z,95572.81
2022-08-03T02:55:21.743Z,95571.19
2022-08-03T02:57:50.500Z,95564.72
2022-08-03T03:00:19.672Z,95572.00
2022-08-03T03:03:00.727Z,95572.78
2022-08-03T03:05:54.567Z,95573.88
2022-08-03T03:08:20.657Z,95572.78
2022-08-03T03:10:53.274Z,95577.91
2022-08-03T03:13:23.503Z,95571.69
2022-08-03T03:15:51.884Z,95571.13
2022-08-03T03:18:22.930Z,95573.00
2022-08-03T03:20:52.406Z,95578.09
2022-08-03T03:23:24.712Z,95579.63
2022-08-03T03:25:53.519Z,95578.03
2022-08-03T03:28:20.256Z,95580.19
2022-08-03T03:30:53.056Z,95576.91
2022-08-03T03:33:21.336Z,95580.69
2022-08-03T03:35:48.761Z,95586.06
2022-08-03T03:38:15.485Z,95586.84
2022-08-03T03:40:42.748Z,95580.69
2022-08-03T03:43:11.739Z,95581.25
2022-08-03T03:45:41.434Z,95584.50
2022-08-03T03:48:08.361Z,95588.78
2022-08-03T03:50:37.170Z,95586.06
2022-08-03T03:53:04.572Z,95588.72
2022-08-03T03:55:31.105Z,95587.63
2022-08-03T03:57:57.607Z,95581.22
2022-08-03T04:00:24.114Z,95591.91
2022-08-03T04:02:50.646Z,95591.66
2022-08-03T04:05:17.162Z,95586.00
2022-08-03T04:07:57.562Z,95588.97
2022-08-03T04:10:31.529Z,95588.69
2022-08-03T04:13:02.184Z,95593.00
2022-08-03T04:15:32.167Z,95593.00
2022-08-03T04:18:01.283Z,95587.06
2022-08-03T04:20:32.353Z,95583.22
2022-08-03T04:23:02.493Z,95591.09
2022-08-03T04:25:33.985Z,95584.09
2022-08-03T04:28:09.749Z,95591.84
2022-08-03T04:30:51.343Z,95584.31
2022-08-03T04:33:20.110Z,95594.28
2022-08-03T04:36:01.799Z,95592.59
2022-08-03T04:38:32.905Z,95593.66
2022-08-03T04:41:01.360Z,95594.81
2022-08-03T04:43:30.518Z,95589.38
2022-08-03T04:45:59.930Z,95591.28
2022-08-03T04:48:27.207Z,95597.16
2022-08-03T04:50:54.606Z,95604.22
2022-08-03T04:53:21.553Z,95599.44
2022-08-03T04:55:48.210Z,95600.53
2022-08-03T04:58:14.820Z,95601.59
2022-08-03T05:00:41.408Z,95605.34
2022-08-03T05:03:23.505Z,95595.69
2022-08-03T05:05:53.014Z,95602.50
2022-08-03T05:08:20.654Z,95601.28
2022-08-03T05:10:54.679Z,95605.59
2022-08-03T05:13:21.180Z,95607.41
2022-08-03T05:15:47.690Z,95616.91
2022-08-03T05:18:14.542Z,95620.75
2022-08-03T05:20:41.495Z,95618.31
2022-08-03T05:23:08.070Z,95615.69
2022-08-03T05:25:34.648Z,95621.38
2022-08-03T05:28:01.141Z,95623.31
2022-08-03T05:30:33.827Z,95627.06
2022-08-03T05:33:02.176Z,95625.25
2022-08-03T05:36:00.984Z,95620.66
2022-08-03T05:38:15.277Z,95632.50
2022-08-03T05:40:57.247Z,95628.16
2022-08-03T05:43:37.243Z,95622.88
2022-08-03T05:46:12.190Z,95627.69
2022-08-03T05:48:39.468Z,95626.63
2022-08-03T05:51:06.056Z,95634.78
2022-08-03T05:53:35.573Z,95635.84
2022-08-03T05:56:03.635Z,95631.03
2022-08-03T05:58:42.725Z,95634.31
2022-08-03T06:01:09.270Z,95637.59
2022-08-03T06:03:35.787Z,95629.84
2022-08-03T06:06:02.272Z,95626.38
2022-08-03T06:08:28.909Z,95626.38
2022-08-03T06:10:55.433Z,95633.94
2022-08-03T06:13:21.977Z,95630.16
2022-08-03T06:15:48.522Z,95638.81
2022-08-03T06:18:15.096Z,95641.56
2022-08-03T06:20:41.624Z,95639.38
2022-08-03T06:23:08.116Z,95633.16
2022-08-03T06:25:42.990Z,95629.09
2022-08-03T06:28:18.939Z,95621.53
2022-08-03T06:30:55.589Z,95626.38
2022-08-03T06:33:22.122Z,95632.31
2022-08-03T06:35:48.618Z,95638.25
2022-08-03T06:38:15.164Z,95637.69
2022-08-03T06:40:41.739Z,95645.28
2022-08-03T06:43:12.506Z,95643.94
2022-08-03T06:45:39.384Z,95653.94
2022-08-03T06:48:11.664Z,95646.38
2022-08-03T06:50:41.207Z,95647.16
2022-08-03T06:53:09.089Z,95660.94
2022-08-03T06:55:44.739Z,95657.19
2022-08-03T06:58:11.256Z,95656.59
2022-08-03T07:00:37.763Z,95653.91
2022-08-03T07:03:04.289Z,95657.69
2022-08-03T07:05:30.814Z,95657.13
2022-08-03T07:07:57.761Z,95668.78
2022-08-03T07:10:24.438Z,95671.22
2022-08-03T07:12:56.062Z,95665.28
2022-08-03T07:15:53.673Z,95661.47
2022-08-03T07:18:09.765Z,95667.69
2022-08-03T07:20:36.268Z,95686.59
2022-08-03T07:23:02.771Z,95677.69
2022-08-03T07:25:29.291Z,95679.03
2022-08-03T07:27:55.821Z,95682.25
2022-08-03T07:30:23.046Z,95683.59
2022-08-03T07:32:50.709Z,95688.22
2022-08-03T07:35:24.451Z,95678.97
2022-08-03T07:37:54.412Z,95683.56
2022-08-03T07:40:21.364Z,95678.16
2022-08-03T07:42:47.928Z,95678.63
2022-08-03T07:45:18.740Z,95682.44
2022-08-03T07:47:53.061Z,95687.84
2022-08-03T07:50:21.204Z,95686.38
2022-08-03T07:52:48.210Z,95685.13
2022-08-03T07:55:15.704Z,95682.38
2022-08-03T07:57:42.552Z,95681.38
2022-08-03T08:00:15.934Z,95680.00
2022-08-03T08:02:43.399Z,95679.78
2022-08-03T08:05:10.110Z,95682.16
2022-08-03T08:07:37.255Z,95682.94
2022-08-03T08:10:05.865Z,95690.00
2022-08-03T08:12:49.998Z,95671.03
2022-08-03T08:15:16.779Z,95682.06
2022-08-03T08:17:47.561Z,95676.28
2022-08-03T08:20:27.971Z,95677.91
2022-08-03T08:22:57.001Z,95675.41
2022-08-03T08:25:23.800Z,95677.31
2022-08-03T08:28:31.451Z,95673.47
2022-08-03T08:30:37.230Z,95672.69
2022-08-03T08:33:03.754Z,95674.56
2022-08-03T08:35:30.441Z,95672.47
2022-08-03T08:37:59.409Z,95675.19
2022-08-03T08:40:32.175Z,95673.00
2022-08-03T08:42:59.276Z,95671.84
2022-08-03T08:45:26.427Z,95669.84
2022-08-03T08:47:59.907Z,95674.59
2022-08-03T08:50:28.429Z,95667.91
2022-08-03T08:52:59.248Z,95664.16
2022-08-03T08:55:26.450Z,95669.47
2022-08-03T08:58:05.932Z,95668.06
2022-08-03T09:00:32.767Z,95657.97
2022-08-03T09:03:01.226Z,95661.91
2022-08-03T09:05:53.959Z,95659.75
2022-08-03T09:08:17.485Z,95675.88
2022-08-03T09:10:44.659Z,95669.28
2022-08-03T09:13:11.779Z,95676.72
2022-08-03T09:15:38.351Z,95665.34
2022-08-03T09:18:04.986Z,95666.44
2022-08-03T09:20:34.167Z,95666.78
2022-08-03T09:23:09.679Z,95667.97
2022-08-03T09:25:59.893Z,95671.84
2022-08-03T09:29:01.337Z,95670.13
2022-08-03T09:31:30.518Z,95669.69
2022-08-03T09:33:58.190Z,95670.03
2022-08-03T09:36:47.010Z,95674.78
2022-08-03T09:39:42.178Z,95660.41
2022-08-03T09:42:15.620Z,95669.03
2022-08-03T09:44:44.723Z,95672.25
2022-08-03T09:47:13.638Z,95673.06
2022-08-03T09:49:42.102Z,95668.47
2022-08-03T09:52:33.708Z,95658.75
2022-08-03T09:56:05.191Z,95662.06
2022-08-03T09:58:08.739Z,95661.97
2022-08-03T10:01:07.538Z,95654.81
2022-08-03T10:04:03.857Z,95645.81
2022-08-03T10:06:31.954Z,95652.16
2022-08-03T10:09:15.716Z,95650.66
2022-08-03T10:11:44.109Z,95651.56
2022-08-03T10:14:12.722Z,95642.00
2022-08-03T10:16:40.550Z,95644.22
2022-08-03T10:19:08.405Z,95643.53
2022-08-03T10:21:38.417Z,95645.59
2022-08-03T10:24:07.894Z,95641.44
2022-08-03T10:26:36.479Z,95638.72
2022-08-03T10:29:07.406Z,95643.75
2022-08-03T10:31:57.526Z,95632.22
2022-08-03T10:34:34.519Z,95638.97
2022-08-03T10:37:09.915Z,95634.66
2022-08-03T10:39:36.425Z,95630.19
2022-08-03T10:42:05.476Z,95627.38
2022-08-03T10:44:42.442Z,95624.69
2022-08-03T10:47:11.070Z,95631.41
2022-08-03T10:49:38.579Z,95630.41
2022-08-03T10:52:12.996Z,95631.00
2022-08-03T10:54:53.083Z,95632.22
2022-08-03T10:57:52.444Z,95630.31
2022-08-03T11:00:24.954Z,95622.84
2022-08-03T11:03:12.642Z,95624.84
2022-08-03T11:05:41.954Z,95625.38
2022-08-03T11:08:23.603Z,95621.31
2022-08-03T11:10:53.124Z,95622.53
2022-08-03T11:13:22.799Z,95619.63
2022-08-03T11:15:52.621Z,95620.97
2022-08-03T11:18:19.693Z,95617.75
2022-08-03T11:20:52.949Z,95621.44
2022-08-03T11:24:02.759Z,95622.75
2022-08-03T11:26:26.868Z,95621.59
2022-08-03T11:28:53.395Z,95611.75
2022-08-03T11:31:48.103Z,95610.13
2022-08-03T11:34:12.008Z,95612.06
2022-08-03T11:37:16.377Z,95614.38
2022-08-03T11:39:45.885Z,95607.28
2022-08-03T11:42:24.565Z,95602.03
2022-08-03T11:44:54.186Z,95599.75
2022-08-03T11:47:22.654Z,95592.91
2022-08-03T11:49:50.689Z,95591.81
2022-08-03T11:52:18.154Z,95596.34
2022-08-03T11:54:45.401Z,95591.31
2022-08-03T11:59:01.814Z,95591.13
2022-08-03T12:00:29.377Z,95589.00
2022-08-03T12:03:10.026Z,95586.06
2022-08-03T12:05:37.875Z,95582.78
2022-08-03T12:08:07.281Z,95583.50
2022-08-03T12:10:34.690Z,95574.06
2022-08-03T12:13:03.063Z,95573.50
2022-08-03T12:15:32.458Z,95565.75
2022-08-03T12:17:59.273Z,95572.72
2022-08-03T12:20:34.506Z,95567.47
2022-08-03T12:23:04.546Z,95567.44
2022-08-03T12:25:39.223Z,95568.28
2022-08-03T12:28:37.043Z,95561.22
2022-08-03T12:31:02.535Z,95571.47
2022-08-03T12:33:29.074Z,95558.19
2022-08-03T12:36:05.783Z,95557.19
2022-08-03T12:38:39.698Z,95556.00
2022-08-03T12:41:11.207Z,95550.16
2022-08-03T12:43:39.672Z,95543.75
2022-08-03T12:46:13.864Z,95545.50
2022-08-03T12:49:06.706Z,95541.31
2022-08-03T12:51:56.214Z,95544.94
2022-08-03T12:54:25.327Z,95541.91
2022-08-03T12:57:15.882Z,95543.06
2022-08-03T12:59:53.134Z,95541.53
2022-08-03T13:02:24.375Z,95542.53
2022-08-03T13:04:53.098Z,95531.34
2022-08-03T13:07:21.448Z,95543.25
2022-08-03T13:09:51.162Z,95534.59
2022-08-03T13:12:21.150Z,95524.50
2022-08-03T13:14:50.850Z,95529.16
2022-08-03T13:17:18.440Z,95536.91
2022-08-03T13:19:46.437Z,95538.31
2022-08-03T13:22:15.940Z,95541.53
2022-08-03T13:24:44.040Z,95531.06
2022-08-03T13:28:01.558Z,95529.16
2022-08-03T13:29:58.766Z,95525.34
2022-08-03T13:32:25.318Z,95520.84
2022-08-03T13:34:51.928Z,95521.44
2022-08-03T13:37:18.428Z,95518.06
2022-08-03T13:39:58.024Z,95519.47
2022-08-03T13:42:31.405Z,95509.91
2022-08-03T13:44:58.668Z,95506.53
2022-08-03T13:47:26.519Z,95510.13
2022-08-03T13:49:59.830Z,95505.78
2022-08-03T13:52:34.329Z,95510.00
2022-08-03T13:55:02.182Z,95503.16
2022-08-03T13:58:04.028Z,95501.72
2022-08-03T14:00:26.096Z,95497.69
2022-08-03T14:02:57.258Z,95493.81
2022-08-03T14:05:29.144Z,95496.75
2022-08-03T14:07:58.710Z,95495.16
2022-08-03T14:10:35.505Z,95492.03
2022-08-03T14:13:02.124Z,95480.38
2022-08-03T14:15:28.758Z,95486.38
2022-08-03T14:17:55.927Z,95492.28
2022-08-03T14:20:37.972Z,95482.88
2022-08-03T14:23:07.287Z,95480.88
2022-08-03T14:25:44.220Z,95475.22
2022-08-03T14:28:22.504Z,95470.53
2022-08-03T14:30:50.516Z,95469.78
2022-08-03T14:33:17.006Z,95462.34
2022-08-03T14:35:43.707Z,95464.59
2022-08-03T14:38:10.194Z,95459.84
2022-08-03T14:40:37.009Z,95449.72
2022-08-03T14:43:03.556Z,95452.25
2022-08-03T14:45:30.297Z,95449.75
2022-08-03T14:50:30.725Z,95448.94
2022-08-03T14:50:50.262Z,95451.69
2022-08-03T14:53:18.256Z,95446.50
2022-08-03T14:55:50.419Z,95441.31
2022-08-03T14:58:20.904Z,95440.09
2022-08-03T15:00:49.789Z,95441.44
2022-08-03T15:03:17.407Z,95435.28
2022-08-03T15:05:44.417Z,95439.53
2022-08-03T15:08:11.043Z,95442.22
2022-08-03T15:10:40.638Z,95440.25
2022-08-03T15:13:12.902Z,95433.38
2022-08-03T15:15:39.710Z,95424.03
2022-08-03T15:18:06.669Z,95424.38
2022-08-03T15:20:43.936Z,95430.50
2022-08-03T15:23:12.810Z,95421.84
2022-08-03T15:26:02.348Z,95424.72
2022-08-03T15:28:26.163Z,95417.03
2022-08-03T15:30:52.946Z,95417.75
2022-08-03T15:33:19.561Z,95417.38
2022-08-03T15:35:46.035Z,95414.84
2022-08-03T15:38:13.071Z,95403.31
2022-08-03T15:40:39.550Z,95409.56
2022-08-03T15:43:06.357Z,95410.22
2022-08-03T15:45:35.361Z,95407.38
2022-08-03T15:48:04.271Z,95398.31
2022-08-03T15:50:30.867Z,95402.06
2022-08-03T15:52:57.419Z,95402.31
2022-08-03T15:55:23.983Z,95403.53
2022-08-03T15:59:03.571Z,95393.28
2022-08-03T16:00:37.898Z,95398.13
2022-08-03T16:03:04.616Z,95395.34
2022-08-03T16:05:31.381Z,95403.00
2022-08-03T16:08:03.076Z,95388.59
2022-08-03T16:10:32.296Z,95401.19
2022-08-03T16:12:59.048Z,95390.47
2022-08-03T16:15:25.809Z,95388.41
2022-08-03T16:17:52.416Z,95384.22
2022-08-03T16:20:31.686Z,95390.59
2022-08-03T16:23:09.154Z,95376.47
2022-08-03T16:25:42.511Z,95388.94
2022-08-03T16:28:14.183Z,95390.25
2022-08-03T16:30:43.711Z,95388.13
2022-08-03T16:33:16.694Z,95380.63
2022-08-03T16:35:45.596Z,95381.78
2022-08-03T16:38:16.769Z,95380.41
2022-08-03T16:40:45.756Z,95381.88
2022-08-03T16:43:18.339Z,95374.06
2022-08-03T16:45:47.099Z,95365.31
2022-08-03T16:48:20.543Z,95370.13
2022-08-03T16:50:47.993Z,95368.16
2022-08-03T16:53:16.439Z,95369.25
2022-08-03T16:55:53.433Z,95362.03
2022-08-03T16:58:41.483Z,95365.47
2022-08-03T17:01:22.299Z,95364.03
2022-08-03T17:04:02.341Z,95364.81
2022-08-03T17:06:35.456Z,95365.06
2022-08-03T17:09:10.628Z,95360.09
2022-08-03T17:11:39.039Z,95362.88
2022-08-03T17:14:12.532Z,95365.94
2022-08-03T17:16:40.362Z,95360.41
2022-08-03T17:19:23.093Z,95371.44
2022-08-03T17:21:58.030Z,95366.59
2022-08-03T17:24:35.458Z,95356.03
2022-08-03T17:28:41.779Z,95357.13
2022-08-03T17:30:07.787Z,95362.63
2022-08-03T17:32:37.099Z,95358.25
2022-08-03T17:35:10.556Z,95353.44
2022-08-03T17:37:57.947Z,95361.53
2022-08-03T17:40:24.358Z,95357.66
2022-08-03T17:42:52.449Z,95364.03
2022-08-03T17:45:19.881Z,95361.75
2022-08-03T17:47:57.768Z,95365.78
2022-08-03T17:53:29.444Z,95364.59
2022-08-03T17:56:38.843Z,95364.25
2022-08-03T17:59:51.057Z,95366.94
2022-08-03T18:02:58.078Z,95367.41
2022-08-03T18:06:10.862Z,95371.38
2022-08-03T18:08:26.953Z,95374.56
2022-08-03T18:11:09.694Z,95369.78
2022-08-03T18:13:57.553Z,95368.75
2022-08-03T18:16:31.401Z,95369.97
2022-08-03T18:19:01.133Z,95373.47
2022-08-03T18:22:03.397Z,95372.56
2022-08-03T18:24:24.907Z,95381.22
2022-08-03T18:26:53.995Z,95378.25
2022-08-03T18:29:21.912Z,95374.19
2022-08-03T18:32:02.561Z,95368.03
2022-08-03T18:34:33.599Z,95382.97
2022-08-03T18:37:01.203Z,95374.84
2022-08-03T18:39:49.589Z,95376.25
2022-08-03T18:42:19.574Z,95377.63
2022-08-03T18:44:54.443Z,95380.31
2022-08-03T18:47:51.692Z,95378.47
2022-08-03T18:50:31.717Z,95378.69
2022-08-03T18:53:03.041Z,95373.72
2022-08-03T18:55:38.379Z,95377.19
2022-08-03T18:58:40.799Z,95375.16
2022-08-03T19:02:00.661Z,95375.28
2022-08-03T19:04:19.130Z,95379.25
2022-08-03T19:07:00.651Z,95370.75
2022-08-03T19:09:34.735Z,95381.13
2022-08-03T19:12:13.126Z,95380.19
2022-08-03T19:14:56.713Z,95379.28
2022-08-03T19:17:29.460Z,95382.09
2022-08-03T19:19:58.157Z,95383.91
2022-08-03T19:22:25.492Z,95379.25
2022-08-03T19:24:54.710Z,95397.13
2022-08-03T19:27:26.799Z,95397.16
2022-08-03T19:29:58.384Z,95402.00
2022-08-03T19:32:32.363Z,95399.13
2022-08-03T19:35:01.847Z,95398.81
2022-08-03T19:37:38.237Z,95392.09
2022-08-03T19:40:10.398Z,95395.63
2022-08-03T19:42:44.261Z,95406.69
2022-08-03T19:45:17.026Z,95407.47
2022-08-03T19:47:54.973Z,95409.22
2022-08-03T19:50:21.493Z,95410.19
2022-08-03T19:52:49.462Z,95405.69
2022-08-03T19:55:17.554Z,95410.63
2022-08-03T19:57:49.340Z,95403.88
2022-08-03T20:00:17.942Z,95416.69
2022-08-03T20:02:45.271Z,95424.91
2022-08-03T20:05:15.280Z,95417.69
2022-08-03T20:07:48.219Z,95426.94
2022-08-03T20:10:16.877Z,95429.59
2022-08-03T20:12:47.713Z,95422.16
2022-08-03T20:15:18.260Z,95428.06
2022-08-03T20:17:55.074Z,95437.31
2022-08-03T20:20:33.467Z,95430.38
2022-08-03T20:23:10.016Z,95422.97
2022-08-03T20:25:55.706Z,95423.31
2022-08-03T20:28:50.712Z,95422.88
2022-08-03T20:31:23.817Z,95416.97
2022-08-03T20:34:00.242Z,95421.97
2022-08-03T20:36:27.497Z,95428.00
2022-08-03T20:38:58.018Z,95426.47
2022-08-03T20:41:25.238Z,95425.13
2022-08-03T20:43:51.753Z,95421.81
2022-08-03T20:46:38.248Z,95426.59
2022-08-03T20:49:06.785Z,95415.09
2022-08-03T20:51:49.585Z,95418.44
2022-08-03T20:54:28.581Z,95420.03
2022-08-03T20:56:56.292Z,95424.97
2022-08-03T20:59:23.478Z,95427.66
2022-08-03T21:01:50.654Z,95424.63
2022-08-03T21:04:21.087Z,95433.28
2022-08-03T21:06:59.648Z,95425.41
2022-08-03T21:09:39.831Z,95427.28
2022-08-03T21:12:17.824Z,95425.63
2022-08-03T21:12:55.449Z,95357.69
2022-08-03T21:15:02.373Z,95425.63
2022-08-03T21:17:40.362Z,95430.06
2022-08-03T21:20:11.537Z,95432.78
2022-08-03T21:22:42.232Z,95426.22
2022-08-03T21:25:10.141Z,95421.41
2022-08-03T21:27:37.384Z,95434.50
2022-08-03T21:30:10.239Z,95433.09
2022-08-03T21:32:36.885Z,95430.66
2022-08-03T21:35:03.581Z,95428.44
2022-08-03T21:37:30.124Z,95437.72
2022-08-03T21:39:56.935Z,95441.06
2022-08-03T21:42:24.095Z,95451.06
2022-08-03T21:44:53.928Z,95451.47
2022-08-03T21:47:25.094Z,95451.94
2022-08-03T21:50:07.622Z,95448.50
2022-08-03T21:52:42.003Z,95458.78
2022-08-03T21:55:08.940Z,95453.53
2022-08-03T21:57:51.849Z,95453.34
2022-08-03T22:00:22.367Z,95457.47
2022-08-03T22:02:54.471Z,95463.59
2022-08-03T22:05:28.142Z,95454.31
2022-08-03T22:08:10.664Z,95464.69
2022-08-03T22:10:37.700Z,95461.56
2022-08-03T22:13:04.188Z,95470.09
2022-08-03T22:15:31.461Z,95464.75
2022-08-03T22:17:59.605Z,95461.31
2022-08-03T22:20:26.139Z,95465.84
2022-08-03T22:22:56.855Z,95475.41
2022-08-03T22:25:28.264Z,95481.03
2022-08-03T22:27:55.645Z,95482.13
2022-08-03T22:30:22.761Z,95479.63
2022-08-03T22:32:52.609Z,95479.81
2022-08-03T22:35:21.154Z,95480.44
2022-08-03T22:37:57.071Z,95485.88
2022-08-03T22:40:23.869Z,95487.25
2022-08-03T22:42:51.995Z,95487.22
2022-08-03T22:46:08.039Z,95491.03
2022-08-03T22:48:07.988Z,95488.97
2022-08-03T22:50:35.560Z,95490.06
2022-08-03T22:53:02.789Z,95492.44
2022-08-03T22:55:30.936Z,95488.72
2022-08-03T22:57:57.462Z,95493.91
2022-08-03T23:00:24.650Z,95486.31
2022-08-03T23:02:54.337Z,95498.50
2022-08-03T23:06:00.238Z,95498.97
2022-08-03T23:08:14.822Z,95497.59
2022-08-03T23:10:47.242Z,95492.22
2022-08-03T23:13:18.928Z,95494.69
2022-08-03T23:15:56.932Z,95489.28
2022-08-03T23:18:24.834Z,95494.22
2022-08-03T23:20:52.841Z,95490.25
2022-08-03T23:23:20.631Z,95492.06
2022-08-03T23:25:50.536Z,95487.22
2022-08-03T23:28:18.497Z,95493.81
2022-08-03T23:30:47.465Z,95497.63
2022-08-03T23:33:16.178Z,95495.00
2022-08-03T23:36:20.006Z,95499.38
2022-08-03T23:38:35.063Z,95497.88
2022-08-03T23:41:03.810Z,95509.88
2022-08-03T23:43:44.376Z,95500.22
2022-08-03T23:46:21.627Z,95499.25
2022-08-03T23:48:48.272Z,95502.84
2022-08-03T23:51:30.953Z,95495.69
2022-08-03T23:54:17.359Z,95498.09
2022-08-03T23:57:15.055Z,95509.06
